sensor_id;sensor_type;location;lat;lon;timestamp;P1;durP1;ratioP1;P2;durP2;ratioP2
4186;SDS011;2107;52.306;10.484;2023-06-04T00:01:09;0.63;;;0.63;;
4186;SDS011;2107;52.306;10.484;2023-06-04T00:03:36;0.70;;;0.70;;
4186;SDS011;2107;52.306;10.484;2023-06-04T00:06:03;0.80;;;0.80;;
4186;SDS011;2107;52.306;10.484;2023-06-04T00:08:30;0.80;;;0.80;;
4186;SDS011;2107;52.306;10.484;2023-06-04T00:10:58;0.70;;;0.70;;
4186;SDS011;2107;52.306;10.484;2023-06-04T00:13:25;0.60;;;0.60;;
4186;SDS011;2107;52.306;10.484;2023-06-04T00:15:52;0.70;;;0.70;;
4186;SDS011;2107;52.306;10.484;2023-06-04T00:18:18;0.60;;;0.60;;
4186;SDS011;2107;52.306;10.484;2023-06-04T00:20:45;0.60;;;0.60;;
4186;SDS011;2107;52.306;10.484;2023-06-04T00:23:12;0.60;;;0.60;;
4186;SDS011;2107;52.306;10.484;2023-06-04T00:25:39;0.60;;;0.60;;
4186;SDS011;2107;52.306;10.484;2023-06-04T00:28:07;0.57;;;0.57;;
4186;SDS011;2107;52.306;10.484;2023-06-04T00:30:34;0.50;;;0.50;;
4186;SDS011;2107;52.306;10.484;2023-06-04T00:33:01;0.60;;;0.60;;
4186;SDS011;2107;52.306;10.484;2023-06-04T00:35:28;0.60;;;0.60;;
4186;SDS011;2107;52.306;10.484;2023-06-04T00:37:55;0.80;;;0.80;;
4186;SDS011;2107;52.306;10.484;2023-06-04T00:40:21;0.70;;;0.70;;
4186;SDS011;2107;52.306;10.484;2023-06-04T00:42:48;0.60;;;0.60;;
4186;SDS011;2107;52.306;10.484;2023-06-04T00:45:16;0.60;;;0.60;;
4186;SDS011;2107;52.306;10.484;2023-06-04T00:47:45;0.50;;;0.50;;
4186;SDS011;2107;52.306;10.484;2023-06-04T00:50:12;0.50;;;0.50;;
4186;SDS011;2107;52.306;10.484;2023-06-04T00:52:40;0.57;;;0.57;;
4186;SDS011;2107;52.306;10.484;2023-06-04T00:55:07;0.70;;;0.70;;
4186;SDS011;2107;52.306;10.484;2023-06-04T00:57:37;0.60;;;0.60;;
4186;SDS011;2107;52.306;10.484;2023-06-04T01:00:05;0.60;;;0.60;;
4186;SDS011;2107;52.306;10.484;2023-06-04T01:02:34;0.60;;;0.60;;
4186;SDS011;2107;52.306;10.484;2023-06-04T01:05:06;0.70;;;0.70;;
4186;SDS011;2107;52.306;10.484;2023-06-04T01:07:37;0.60;;;0.60;;
4186;SDS011;2107;52.306;10.484;2023-06-04T01:10:10;0.70;;;0.70;;
4186;SDS011;2107;52.306;10.484;2023-06-04T01:12:38;0.70;;;0.70;;
4186;SDS011;2107;52.306;10.484;2023-06-04T01:15:06;0.60;;;0.60;;
4186;SDS011;2107;52.306;10.484;2023-06-04T01:17:36;0.57;;;0.57;;
4186;SDS011;2107;52.306;10.484;2023-06-04T01:20:14;0.50;;;0.50;;
4186;SDS011;2107;52.306;10.484;2023-06-04T01:22:48;0.60;;;0.60;;
4186;SDS011;2107;52.306;10.484;2023-06-04T01:25:31;0.60;;;0.60;;
4186;SDS011;2107;52.306;10.484;2023-06-04T01:28:01;0.50;;;0.50;;
4186;SDS011;2107;52.306;10.484;2023-06-04T01:30:30;0.50;;;0.50;;
4186;SDS011;2107;52.306;10.484;2023-06-04T01:33:00;0.40;;;0.40;;
4186;SDS011;2107;52.306;10.484;2023-06-04T01:35:27;0.50;;;0.50;;
4186;SDS011;2107;52.306;10.484;2023-06-04T01:37:56;0.50;;;0.50;;
4186;SDS011;2107;52.306;10.484;2023-06-04T01:40:23;0.67;;;0.67;;
4186;SDS011;2107;52.306;10.484;2023-06-04T01:42:51;0.40;;;0.40;;
4186;SDS011;2107;52.306;10.484;2023-06-04T01:45:18;0.50;;;0.50;;
4186;SDS011;2107;52.306;10.484;2023-06-04T01:47:46;0.43;;;0.43;;
4186;SDS011;2107;52.306;10.484;2023-06-04T01:50:15;0.40;;;0.40;;
4186;SDS011;2107;52.306;10.484;2023-06-04T01:52:42;0.40;;;0.40;;
4186;SDS011;2107;52.306;10.484;2023-06-04T01:55:09;0.30;;;0.30;;
4186;SDS011;2107;52.306;10.484;2023-06-04T01:57:38;0.50;;;0.50;;
4186;SDS011;2107;52.306;10.484;2023-06-04T02:00:06;0.40;;;0.40;;
4186;SDS011;2107;52.306;10.484;2023-06-04T02:02:35;0.40;;;0.40;;
4186;SDS011;2107;52.306;10.484;2023-06-04T02:05:03;0.43;;;0.43;;
4186;SDS011;2107;52.306;10.484;2023-06-04T02:07:33;0.40;;;0.40;;
4186;SDS011;2107;52.306;10.484;2023-06-04T02:10:03;0.30;;;0.30;;
4186;SDS011;2107;52.306;10.484;2023-06-04T02:12:31;0.30;;;0.30;;
4186;SDS011;2107;52.306;10.484;2023-06-04T02:14:57;0.30;;;0.30;;
4186;SDS011;2107;52.306;10.484;2023-06-04T02:17:24;0.40;;;0.40;;
4186;SDS011;2107;52.306;10.484;2023-06-04T02:19:51;0.40;;;0.40;;
4186;SDS011;2107;52.306;10.484;2023-06-04T02:22:19;0.40;;;0.40;;
4186;SDS011;2107;52.306;10.484;2023-06-04T02:24:48;0.50;;;0.50;;
4186;SDS011;2107;52.306;10.484;2023-06-04T02:27:14;0.50;;;0.50;;
4186;SDS011;2107;52.306;10.484;2023-06-04T02:29:41;0.40;;;0.40;;
4186;SDS011;2107;52.306;10.484;2023-06-04T02:32:08;0.40;;;0.40;;
4186;SDS011;2107;52.306;10.484;2023-06-04T02:34:36;0.40;;;0.40;;
4186;SDS011;2107;52.306;10.484;2023-06-04T02:37:03;0.40;;;0.40;;
4186;SDS011;2107;52.306;10.484;2023-06-04T02:39:30;0.50;;;0.50;;
4186;SDS011;2107;52.306;10.484;2023-06-04T02:41:58;0.40;;;0.40;;
4186;SDS011;2107;52.306;10.484;2023-06-04T02:44:25;0.40;;;0.40;;
4186;SDS011;2107;52.306;10.484;2023-06-04T02:46:54;0.40;;;0.40;;
4186;SDS011;2107;52.306;10.484;2023-06-04T02:49:23;0.40;;;0.40;;
4186;SDS011;2107;52.306;10.484;2023-06-04T02:51:50;0.40;;;0.40;;
4186;SDS011;2107;52.306;10.484;2023-06-04T02:54:17;0.40;;;0.40;;
4186;SDS011;2107;52.306;10.484;2023-06-04T02:56:44;0.40;;;0.40;;
4186;SDS011;2107;52.306;10.484;2023-06-04T02:59:12;0.60;;;0.60;;
4186;SDS011;2107;52.306;10.484;2023-06-04T03:01:39;0.50;;;0.50;;
4186;SDS011;2107;52.306;10.484;2023-06-04T03:04:05;0.47;;;0.47;;
4186;SDS011;2107;52.306;10.484;2023-06-04T03:06:35;0.30;;;0.30;;
4186;SDS011;2107;52.306;10.484;2023-06-04T03:09:03;0.40;;;0.40;;
4186;SDS011;2107;52.306;10.484;2023-06-04T03:11:30;0.40;;;0.40;;
4186;SDS011;2107;52.306;10.484;2023-06-04T03:13:57;0.40;;;0.40;;
4186;SDS011;2107;52.306;10.484;2023-06-04T03:16:25;0.40;;;0.40;;
4186;SDS011;2107;52.306;10.484;2023-06-04T03:18:52;0.40;;;0.40;;
4186;SDS011;2107;52.306;10.484;2023-06-04T03:21:19;0.40;;;0.40;;
4186;SDS011;2107;52.306;10.484;2023-06-04T03:23:46;0.40;;;0.40;;
4186;SDS011;2107;52.306;10.484;2023-06-04T03:26:13;0.40;;;0.40;;
4186;SDS011;2107;52.306;10.484;2023-06-04T03:28:39;0.37;;;0.37;;
4186;SDS011;2107;52.306;10.484;2023-06-04T03:31:06;0.40;;;0.40;;
4186;SDS011;2107;52.306;10.484;2023-06-04T03:33:34;0.30;;;0.30;;
4186;SDS011;2107;52.306;10.484;2023-06-04T03:36:01;0.30;;;0.30;;
4186;SDS011;2107;52.306;10.484;2023-06-04T03:38:28;0.40;;;0.40;;
4186;SDS011;2107;52.306;10.484;2023-06-04T03:40:55;0.40;;;0.40;;
4186;SDS011;2107;52.306;10.484;2023-06-04T03:43:22;0.40;;;0.40;;
4186;SDS011;2107;52.306;10.484;2023-06-04T03:45:49;0.30;;;0.30;;
4186;SDS011;2107;52.306;10.484;2023-06-04T03:48:16;0.40;;;0.40;;
4186;SDS011;2107;52.306;10.484;2023-06-04T03:50:44;0.40;;;0.40;;
4186;SDS011;2107;52.306;10.484;2023-06-04T03:53:12;0.43;;;0.43;;
4186;SDS011;2107;52.306;10.484;2023-06-04T03:55:39;0.60;;;0.60;;
4186;SDS011;2107;52.306;10.484;2023-06-04T03:58:06;0.60;;;0.60;;
4186;SDS011;2107;52.306;10.484;2023-06-04T04:00:34;0.60;;;0.60;;
4186;SDS011;2107;52.306;10.484;2023-06-04T04:03:01;0.50;;;0.50;;
4186;SDS011;2107;52.306;10.484;2023-06-04T04:05:28;0.40;;;0.40;;
4186;SDS011;2107;52.306;10.484;2023-06-04T04:07:56;0.50;;;0.50;;
4186;SDS011;2107;52.306;10.484;2023-06-04T04:10:23;0.50;;;0.50;;
4186;SDS011;2107;52.306;10.484;2023-06-04T04:12:50;0.50;;;0.50;;
4186;SDS011;2107;52.306;10.484;2023-06-04T04:15:19;0.60;;;0.60;;
4186;SDS011;2107;52.306;10.484;2023-06-04T04:17:46;0.60;;;0.60;;
4186;SDS011;2107;52.306;10.484;2023-06-04T04:20:13;0.50;;;0.50;;
4186;SDS011;2107;52.306;10.484;2023-06-04T04:22:41;0.70;;;0.70;;
4186;SDS011;2107;52.306;10.484;2023-06-04T04:25:10;0.60;;;0.60;;
4186;SDS011;2107;52.306;10.484;2023-06-04T04:27:36;0.60;;;0.60;;
4186;SDS011;2107;52.306;10.484;2023-06-04T04:30:06;0.70;;;0.70;;
4186;SDS011;2107;52.306;10.484;2023-06-04T04:32:34;0.60;;;0.60;;
4186;SDS011;2107;52.306;10.484;2023-06-04T04:35:03;0.70;;;0.70;;
4186;SDS011;2107;52.306;10.484;2023-06-04T04:37:32;0.70;;;0.70;;
4186;SDS011;2107;52.306;10.484;2023-06-04T04:40:00;0.70;;;0.70;;
4186;SDS011;2107;52.306;10.484;2023-06-04T04:42:29;0.60;;;0.60;;
4186;SDS011;2107;52.306;10.484;2023-06-04T04:44:56;0.60;;;0.60;;
4186;SDS011;2107;52.306;10.484;2023-06-04T04:47:22;0.60;;;0.60;;
4186;SDS011;2107;52.306;10.484;2023-06-04T04:49:49;0.50;;;0.50;;
4186;SDS011;2107;52.306;10.484;2023-06-04T04:52:16;0.50;;;0.50;;
4186;SDS011;2107;52.306;10.484;2023-06-04T04:54:43;0.50;;;0.50;;
4186;SDS011;2107;52.306;10.484;2023-06-04T04:57:10;0.60;;;0.60;;
4186;SDS011;2107;52.306;10.484;2023-06-04T04:59:38;0.50;;;0.50;;
4186;SDS011;2107;52.306;10.484;2023-06-04T05:02:05;0.50;;;0.50;;
4186;SDS011;2107;52.306;10.484;2023-06-04T05:04:32;0.60;;;0.60;;
4186;SDS011;2107;52.306;10.484;2023-06-04T05:06:58;0.60;;;0.60;;
4186;SDS011;2107;52.306;10.484;2023-06-04T05:09:25;0.50;;;0.50;;
4186;SDS011;2107;52.306;10.484;2023-06-04T05:11:52;0.50;;;0.50;;
4186;SDS011;2107;52.306;10.484;2023-06-04T05:14:19;0.57;;;0.57;;
4186;SDS011;2107;52.306;10.484;2023-06-04T05:16:47;0.43;;;0.43;;
4186;SDS011;2107;52.306;10.484;2023-06-04T05:19:15;0.60;;;0.60;;
4186;SDS011;2107;52.306;10.484;2023-06-04T05:21:42;0.60;;;0.60;;
4186;SDS011;2107;52.306;10.484;2023-06-04T05:24:09;0.70;;;0.70;;
4186;SDS011;2107;52.306;10.484;2023-06-04T05:26:36;0.50;;;0.50;;
4186;SDS011;2107;52.306;10.484;2023-06-04T05:29:04;0.57;;;0.57;;
4186;SDS011;2107;52.306;10.484;2023-06-04T05:31:31;0.70;;;0.70;;
4186;SDS011;2107;52.306;10.484;2023-06-04T05:34:01;0.63;;;0.63;;
4186;SDS011;2107;52.306;10.484;2023-06-04T05:36:29;0.70;;;0.70;;
4186;SDS011;2107;52.306;10.484;2023-06-04T05:38:56;0.60;;;0.60;;
4186;SDS011;2107;52.306;10.484;2023-06-04T05:41:24;0.60;;;0.60;;
4186;SDS011;2107;52.306;10.484;2023-06-04T05:43:52;0.60;;;0.60;;
4186;SDS011;2107;52.306;10.484;2023-06-04T05:46:19;0.60;;;0.60;;
4186;SDS011;2107;52.306;10.484;2023-06-04T05:48:46;0.67;;;0.67;;
4186;SDS011;2107;52.306;10.484;2023-06-04T05:51:14;0.57;;;0.57;;
4186;SDS011;2107;52.306;10.484;2023-06-04T05:53:41;0.63;;;0.63;;
4186;SDS011;2107;52.306;10.484;2023-06-04T05:56:08;0.60;;;0.60;;
4186;SDS011;2107;52.306;10.484;2023-06-04T05:58:35;0.50;;;0.50;;
4186;SDS011;2107;52.306;10.484;2023-06-04T06:01:02;0.60;;;0.60;;
4186;SDS011;2107;52.306;10.484;2023-06-04T06:03:29;0.43;;;0.43;;
4186;SDS011;2107;52.306;10.484;2023-06-04T06:05:56;0.40;;;0.40;;
4186;SDS011;2107;52.306;10.484;2023-06-04T06:08:26;0.43;;;0.43;;
4186;SDS011;2107;52.306;10.484;2023-06-04T06:10:53;0.50;;;0.50;;
4186;SDS011;2107;52.306;10.484;2023-06-04T06:13:20;0.60;;;0.60;;
4186;SDS011;2107;52.306;10.484;2023-06-04T06:15:47;0.70;;;0.70;;
4186;SDS011;2107;52.306;10.484;2023-06-04T06:18:14;0.40;;;0.40;;
4186;SDS011;2107;52.306;10.484;2023-06-04T06:20:41;0.50;;;0.50;;
4186;SDS011;2107;52.306;10.484;2023-06-04T06:23:08;0.40;;;0.40;;
4186;SDS011;2107;52.306;10.484;2023-06-04T06:25:37;0.43;;;0.43;;
4186;SDS011;2107;52.306;10.484;2023-06-04T06:28:05;0.30;;;0.30;;
4186;SDS011;2107;52.306;10.484;2023-06-04T06:30:32;0.37;;;0.37;;
4186;SDS011;2107;52.306;10.484;2023-06-04T06:32:59;0.40;;;0.40;;
4186;SDS011;2107;52.306;10.484;2023-06-04T06:35:26;0.40;;;0.40;;
4186;SDS011;2107;52.306;10.484;2023-06-04T06:37:52;0.50;;;0.50;;
4186;SDS011;2107;52.306;10.484;2023-06-04T06:40:19;0.40;;;0.40;;
4186;SDS011;2107;52.306;10.484;2023-06-04T06:42:49;0.40;;;0.40;;
4186;SDS011;2107;52.306;10.484;2023-06-04T06:45:16;0.40;;;0.40;;
4186;SDS011;2107;52.306;10.484;2023-06-04T06:47:44;0.50;;;0.50;;
4186;SDS011;2107;52.306;10.484;2023-06-04T06:50:11;0.50;;;0.50;;
4186;SDS011;2107;52.306;10.484;2023-06-04T06:52:38;0.43;;;0.43;;
4186;SDS011;2107;52.306;10.484;2023-06-04T06:55:05;0.50;;;0.50;;
4186;SDS011;2107;52.306;10.484;2023-06-04T06:57:32;0.40;;;0.40;;
4186;SDS011;2107;52.306;10.484;2023-06-04T07:00:01;0.50;;;0.50;;
4186;SDS011;2107;52.306;10.484;2023-06-04T07:02:29;0.40;;;0.40;;
4186;SDS011;2107;52.306;10.484;2023-06-04T07:04:56;0.40;;;0.40;;
4186;SDS011;2107;52.306;10.484;2023-06-04T07:07:23;0.40;;;0.40;;
4186;SDS011;2107;52.306;10.484;2023-06-04T07:09:50;0.47;;;0.47;;
4186;SDS011;2107;52.306;10.484;2023-06-04T07:12:17;0.40;;;0.40;;
4186;SDS011;2107;52.306;10.484;2023-06-04T07:14:44;0.47;;;0.47;;
4186;SDS011;2107;52.306;10.484;2023-06-04T07:17:12;0.40;;;0.40;;
4186;SDS011;2107;52.306;10.484;2023-06-04T07:19:39;0.50;;;0.50;;
4186;SDS011;2107;52.306;10.484;2023-06-04T07:22:06;0.50;;;0.50;;
4186;SDS011;2107;52.306;10.484;2023-06-04T07:24:33;0.50;;;0.50;;
4186;SDS011;2107;52.306;10.484;2023-06-04T07:26:59;0.50;;;0.50;;
4186;SDS011;2107;52.306;10.484;2023-06-04T07:29:27;0.43;;;0.43;;
4186;SDS011;2107;52.306;10.484;2023-06-04T07:31:54;0.50;;;0.50;;
4186;SDS011;2107;52.306;10.484;2023-06-04T07:34:22;0.50;;;0.50;;
4186;SDS011;2107;52.306;10.484;2023-06-04T07:36:49;0.50;;;0.50;;
4186;SDS011;2107;52.306;10.484;2023-06-04T07:39:15;0.50;;;0.50;;
4186;SDS011;2107;52.306;10.484;2023-06-04T07:41:42;0.50;;;0.50;;
4186;SDS011;2107;52.306;10.484;2023-06-04T07:44:09;0.40;;;0.40;;
4186;SDS011;2107;52.306;10.484;2023-06-04T07:46:36;0.40;;;0.40;;
4186;SDS011;2107;52.306;10.484;2023-06-04T07:49:03;0.40;;;0.40;;
4186;SDS011;2107;52.306;10.484;2023-06-04T07:51:31;0.30;;;0.30;;
4186;SDS011;2107;52.306;10.484;2023-06-04T07:53:58;0.40;;;0.40;;
4186;SDS011;2107;52.306;10.484;2023-06-04T07:56:25;0.30;;;0.30;;
4186;SDS011;2107;52.306;10.484;2023-06-04T07:58:52;0.30;;;0.30;;
4186;SDS011;2107;52.306;10.484;2023-06-04T08:01:19;0.47;;;0.47;;
4186;SDS011;2107;52.306;10.484;2023-06-04T08:03:46;0.50;;;0.50;;
4186;SDS011;2107;52.306;10.484;2023-06-04T08:06:13;0.40;;;0.40;;
4186;SDS011;2107;52.306;10.484;2023-06-04T08:08:43;0.43;;;0.43;;
4186;SDS011;2107;52.306;10.484;2023-06-04T08:11:10;0.50;;;0.50;;
4186;SDS011;2107;52.306;10.484;2023-06-04T08:13:38;0.30;;;0.30;;
4186;SDS011;2107;52.306;10.484;2023-06-04T08:16:05;0.40;;;0.40;;
4186;SDS011;2107;52.306;10.484;2023-06-04T08:18:32;0.30;;;0.30;;
4186;SDS011;2107;52.306;10.484;2023-06-04T08:21:00;0.47;;;0.47;;
4186;SDS011;2107;52.306;10.484;2023-06-04T08:23:26;0.63;;;0.63;;
4186;SDS011;2107;52.306;10.484;2023-06-04T08:25:55;0.50;;;0.50;;
4186;SDS011;2107;52.306;10.484;2023-06-04T08:28:21;0.43;;;0.43;;
4186;SDS011;2107;52.306;10.484;2023-06-04T08:30:48;0.53;;;0.53;;
4186;SDS011;2107;52.306;10.484;2023-06-04T08:33:15;0.50;;;0.50;;
4186;SDS011;2107;52.306;10.484;2023-06-04T08:35:42;0.50;;;0.50;;
4186;SDS011;2107;52.306;10.484;2023-06-04T08:38:09;0.50;;;0.50;;
4186;SDS011;2107;52.306;10.484;2023-06-04T08:40:36;0.60;;;0.60;;
4186;SDS011;2107;52.306;10.484;2023-06-04T08:43:04;0.60;;;0.60;;
4186;SDS011;2107;52.306;10.484;2023-06-04T08:45:32;0.50;;;0.50;;
4186;SDS011;2107;52.306;10.484;2023-06-04T08:48:04;0.60;;;0.60;;
4186;SDS011;2107;52.306;10.484;2023-06-04T08:50:36;0.63;;;0.63;;
4186;SDS011;2107;52.306;10.484;2023-06-04T08:53:05;0.80;;;0.80;;
4186;SDS011;2107;52.306;10.484;2023-06-04T08:55:33;0.70;;;0.70;;
4186;SDS011;2107;52.306;10.484;2023-06-04T08:58:00;0.60;;;0.60;;
4186;SDS011;2107;52.306;10.484;2023-06-04T09:00:30;0.70;;;0.70;;
4186;SDS011;2107;52.306;10.484;2023-06-04T09:02:56;0.60;;;0.60;;
4186;SDS011;2107;52.306;10.484;2023-06-04T09:05:24;0.60;;;0.60;;
4186;SDS011;2107;52.306;10.484;2023-06-04T09:07:52;0.60;;;0.60;;
4186;SDS011;2107;52.306;10.484;2023-06-04T09:10:20;0.60;;;0.60;;
4186;SDS011;2107;52.306;10.484;2023-06-04T09:12:50;0.50;;;0.50;;
4186;SDS011;2107;52.306;10.484;2023-06-04T09:15:18;0.70;;;0.70;;
4186;SDS011;2107;52.306;10.484;2023-06-04T09:17:46;0.80;;;0.80;;
4186;SDS011;2107;52.306;10.484;2023-06-04T09:20:19;0.40;;;0.40;;
4186;SDS011;2107;52.306;10.484;2023-06-04T09:22:46;0.40;;;0.40;;
4186;SDS011;2107;52.306;10.484;2023-06-04T09:25:18;0.40;;;0.40;;
4186;SDS011;2107;52.306;10.484;2023-06-04T09:27:46;0.30;;;0.30;;
4186;SDS011;2107;52.306;10.484;2023-06-04T09:30:13;0.30;;;0.30;;
4186;SDS011;2107;52.306;10.484;2023-06-04T09:32:41;0.50;;;0.50;;
4186;SDS011;2107;52.306;10.484;2023-06-04T09:35:10;0.50;;;0.50;;
4186;SDS011;2107;52.306;10.484;2023-06-04T09:37:38;0.50;;;0.50;;
4186;SDS011;2107;52.306;10.484;2023-06-04T09:40:05;0.50;;;0.50;;
4186;SDS011;2107;52.306;10.484;2023-06-04T09:42:41;0.50;;;0.50;;
4186;SDS011;2107;52.306;10.484;2023-06-04T09:45:09;0.50;;;0.50;;
4186;SDS011;2107;52.306;10.484;2023-06-04T09:47:40;0.50;;;0.50;;
4186;SDS011;2107;52.306;10.484;2023-06-04T09:50:10;0.30;;;0.30;;
4186;SDS011;2107;52.306;10.484;2023-06-04T09:52:38;0.40;;;0.40;;
4186;SDS011;2107;52.306;10.484;2023-06-04T09:55:15;0.40;;;0.40;;
4186;SDS011;2107;52.306;10.484;2023-06-04T09:57:46;0.50;;;0.50;;
4186;SDS011;2107;52.306;10.484;2023-06-04T10:00:14;0.50;;;0.50;;
4186;SDS011;2107;52.306;10.484;2023-06-04T10:02:43;0.40;;;0.40;;
4186;SDS011;2107;52.306;10.484;2023-06-04T10:05:13;0.40;;;0.40;;
4186;SDS011;2107;52.306;10.484;2023-06-04T10:07:42;0.40;;;0.40;;
4186;SDS011;2107;52.306;10.484;2023-06-04T10:10:11;0.40;;;0.40;;
4186;SDS011;2107;52.306;10.484;2023-06-04T10:12:41;0.30;;;0.30;;
4186;SDS011;2107;52.306;10.484;2023-06-04T10:15:10;0.20;;;0.20;;
4186;SDS011;2107;52.306;10.484;2023-06-04T10:17:38;0.40;;;0.40;;
4186;SDS011;2107;52.306;10.484;2023-06-04T10:20:06;0.30;;;0.30;;
4186;SDS011;2107;52.306;10.484;2023-06-04T10:22:36;0.23;;;0.23;;
4186;SDS011;2107;52.306;10.484;2023-06-04T10:25:03;0.30;;;0.30;;
4186;SDS011;2107;52.306;10.484;2023-06-04T10:27:31;0.30;;;0.30;;
4186;SDS011;2107;52.306;10.484;2023-06-04T10:30:00;0.30;;;0.30;;
4186;SDS011;2107;52.306;10.484;2023-06-04T10:32:28;0.30;;;0.30;;
4186;SDS011;2107;52.306;10.484;2023-06-04T10:34:55;0.30;;;0.30;;
4186;SDS011;2107;52.306;10.484;2023-06-04T10:37:24;0.40;;;0.40;;
4186;SDS011;2107;52.306;10.484;2023-06-04T10:39:53;0.40;;;0.40;;
4186;SDS011;2107;52.306;10.484;2023-06-04T10:42:21;0.47;;;0.47;;
4186;SDS011;2107;52.306;10.484;2023-06-04T10:44:49;0.40;;;0.40;;
4186;SDS011;2107;52.306;10.484;2023-06-04T10:47:18;0.50;;;0.50;;
4186;SDS011;2107;52.306;10.484;2023-06-04T10:49:49;0.60;;;0.60;;
4186;SDS011;2107;52.306;10.484;2023-06-04T10:52:16;0.50;;;0.50;;
4186;SDS011;2107;52.306;10.484;2023-06-04T10:54:44;0.50;;;0.50;;
4186;SDS011;2107;52.306;10.484;2023-06-04T10:57:15;0.50;;;0.50;;
4186;SDS011;2107;52.306;10.484;2023-06-04T10:59:52;0.43;;;0.43;;
4186;SDS011;2107;52.306;10.484;2023-06-04T11:02:20;0.50;;;0.50;;
4186;SDS011;2107;52.306;10.484;2023-06-04T11:04:47;0.40;;;0.40;;
4186;SDS011;2107;52.306;10.484;2023-06-04T11:07:26;0.40;;;0.40;;
4186;SDS011;2107;52.306;10.484;2023-06-04T11:09:53;0.50;;;0.50;;
4186;SDS011;2107;52.306;10.484;2023-06-04T11:12:23;0.40;;;0.40;;
4186;SDS011;2107;52.306;10.484;2023-06-04T11:14:53;0.33;;;0.33;;
4186;SDS011;2107;52.306;10.484;2023-06-04T11:17:21;0.40;;;0.40;;
4186;SDS011;2107;52.306;10.484;2023-06-04T11:19:47;0.40;;;0.40;;
4186;SDS011;2107;52.306;10.484;2023-06-04T11:22:15;0.40;;;0.40;;
4186;SDS011;2107;52.306;10.484;2023-06-04T11:24:41;0.30;;;0.30;;
4186;SDS011;2107;52.306;10.484;2023-06-04T11:27:08;0.40;;;0.40;;
4186;SDS011;2107;52.306;10.484;2023-06-04T11:29:37;0.30;;;0.30;;
4186;SDS011;2107;52.306;10.484;2023-06-04T11:32:04;0.40;;;0.40;;
4186;SDS011;2107;52.306;10.484;2023-06-04T11:34:32;0.30;;;0.30;;
4186;SDS011;2107;52.306;10.484;2023-06-04T11:37:07;0.20;;;0.20;;
4186;SDS011;2107;52.306;10.484;2023-06-04T11:39:35;0.30;;;0.30;;
4186;SDS011;2107;52.306;10.484;2023-06-04T11:42:04;0.30;;;0.30;;
4186;SDS011;2107;52.306;10.484;2023-06-04T11:44:32;0.30;;;0.30;;
4186;SDS011;2107;52.306;10.484;2023-06-04T11:47:00;0.30;;;0.30;;
4186;SDS011;2107;52.306;10.484;2023-06-04T11:49:30;0.30;;;0.30;;
4186;SDS011;2107;52.306;10.484;2023-06-04T11:51:57;0.23;;;0.23;;
4186;SDS011;2107;52.306;10.484;2023-06-04T11:54:25;0.30;;;0.30;;
4186;SDS011;2107;52.306;10.484;2023-06-04T11:56:52;0.30;;;0.30;;
4186;SDS011;2107;52.306;10.484;2023-06-04T11:59:19;0.23;;;0.23;;
4186;SDS011;2107;52.306;10.484;2023-06-04T12:01:47;0.20;;;0.20;;
4186;SDS011;2107;52.306;10.484;2023-06-04T12:04:16;0.20;;;0.20;;
4186;SDS011;2107;52.306;10.484;2023-06-04T12:06:51;0.20;;;0.20;;
4186;SDS011;2107;52.306;10.484;2023-06-04T12:09:21;0.40;;;0.40;;
4186;SDS011;2107;52.306;10.484;2023-06-04T12:11:56;0.40;;;0.40;;
4186;SDS011;2107;52.306;10.484;2023-06-04T12:14:24;0.40;;;0.40;;
4186;SDS011;2107;52.306;10.484;2023-06-04T12:16:54;0.40;;;0.40;;
4186;SDS011;2107;52.306;10.484;2023-06-04T12:19:23;0.40;;;0.40;;
4186;SDS011;2107;52.306;10.484;2023-06-04T12:22:00;0.40;;;0.40;;
4186;SDS011;2107;52.306;10.484;2023-06-04T12:24:30;0.30;;;0.30;;
4186;SDS011;2107;52.306;10.484;2023-06-04T12:27:13;0.30;;;0.30;;
4186;SDS011;2107;52.306;10.484;2023-06-04T12:32:15;0.37;;;0.37;;
4186;SDS011;2107;52.306;10.484;2023-06-04T12:34:43;0.30;;;0.30;;
4186;SDS011;2107;52.306;10.484;2023-06-04T12:37:10;0.30;;;0.30;;
4186;SDS011;2107;52.306;10.484;2023-06-04T12:39:37;0.40;;;0.40;;
4186;SDS011;2107;52.306;10.484;2023-06-04T12:42:05;0.40;;;0.40;;
4186;SDS011;2107;52.306;10.484;2023-06-04T12:44:33;0.37;;;0.37;;
4186;SDS011;2107;52.306;10.484;2023-06-04T12:47:01;0.37;;;0.37;;
4186;SDS011;2107;52.306;10.484;2023-06-04T12:49:28;0.60;;;0.60;;
4186;SDS011;2107;52.306;10.484;2023-06-04T12:51:57;0.30;;;0.30;;
4186;SDS011;2107;52.306;10.484;2023-06-04T12:54:23;0.40;;;0.40;;
4186;SDS011;2107;52.306;10.484;2023-06-04T12:56:52;0.40;;;0.40;;
4186;SDS011;2107;52.306;10.484;2023-06-04T12:59:19;0.50;;;0.50;;
4186;SDS011;2107;52.306;10.484;2023-06-04T13:01:46;0.40;;;0.40;;
4186;SDS011;2107;52.306;10.484;2023-06-04T13:04:13;0.30;;;0.30;;
4186;SDS011;2107;52.306;10.484;2023-06-04T13:06:40;0.40;;;0.40;;
4186;SDS011;2107;52.306;10.484;2023-06-04T13:09:12;0.50;;;0.50;;
4186;SDS011;2107;52.306;10.484;2023-06-04T13:11:41;0.50;;;0.50;;
4186;SDS011;2107;52.306;10.484;2023-06-04T13:20:53;0.30;;;0.30;;
4186;SDS011;2107;52.306;10.484;2023-06-04T13:23:21;0.30;;;0.30;;
4186;SDS011;2107;52.306;10.484;2023-06-04T13:25:49;0.40;;;0.40;;
4186;SDS011;2107;52.306;10.484;2023-06-04T13:28:16;0.40;;;0.40;;
4186;SDS011;2107;52.306;10.484;2023-06-04T13:30:43;0.50;;;0.50;;
4186;SDS011;2107;52.306;10.484;2023-06-04T13:33:10;0.40;;;0.40;;
4186;SDS011;2107;52.306;10.484;2023-06-04T13:35:37;0.40;;;0.40;;
4186;SDS011;2107;52.306;10.484;2023-06-04T13:38:04;0.40;;;0.40;;
4186;SDS011;2107;52.306;10.484;2023-06-04T13:40:31;0.40;;;0.40;;
4186;SDS011;2107;52.306;10.484;2023-06-04T13:43:01;0.50;;;0.50;;
4186;SDS011;2107;52.306;10.484;2023-06-04T13:45:29;0.40;;;0.40;;
4186;SDS011;2107;52.306;10.484;2023-06-04T13:47:56;0.50;;;0.50;;
4186;SDS011;2107;52.306;10.484;2023-06-04T13:50:27;0.40;;;0.40;;
4186;SDS011;2107;52.306;10.484;2023-06-04T13:52:54;0.40;;;0.40;;
4186;SDS011;2107;52.306;10.484;2023-06-04T13:55:21;0.50;;;0.50;;
4186;SDS011;2107;52.306;10.484;2023-06-04T13:57:48;0.53;;;0.53;;
4186;SDS011;2107;52.306;10.484;2023-06-04T14:00:16;0.50;;;0.50;;
4186;SDS011;2107;52.306;10.484;2023-06-04T14:02:43;0.50;;;0.50;;
4186;SDS011;2107;52.306;10.484;2023-06-04T14:05:10;0.40;;;0.40;;
4186;SDS011;2107;52.306;10.484;2023-06-04T14:07:37;0.40;;;0.40;;
4186;SDS011;2107;52.306;10.484;2023-06-04T14:10:04;0.40;;;0.40;;
4186;SDS011;2107;52.306;10.484;2023-06-04T14:12:32;0.30;;;0.30;;
4186;SDS011;2107;52.306;10.484;2023-06-04T14:14:58;0.40;;;0.40;;
4186;SDS011;2107;52.306;10.484;2023-06-04T14:17:27;0.40;;;0.40;;
4186;SDS011;2107;52.306;10.484;2023-06-04T14:19:54;0.40;;;0.40;;
4186;SDS011;2107;52.306;10.484;2023-06-04T14:22:21;0.30;;;0.30;;
4186;SDS011;2107;52.306;10.484;2023-06-04T14:24:48;0.40;;;0.40;;
4186;SDS011;2107;52.306;10.484;2023-06-04T14:27:15;0.40;;;0.40;;
4186;SDS011;2107;52.306;10.484;2023-06-04T14:29:41;0.30;;;0.30;;
4186;SDS011;2107;52.306;10.484;2023-06-04T14:32:08;0.40;;;0.40;;
4186;SDS011;2107;52.306;10.484;2023-06-04T14:34:36;0.40;;;0.40;;
4186;SDS011;2107;52.306;10.484;2023-06-04T14:37:03;0.50;;;0.50;;
4186;SDS011;2107;52.306;10.484;2023-06-04T14:39:30;0.40;;;0.40;;
4186;SDS011;2107;52.306;10.484;2023-06-04T14:41:57;0.50;;;0.50;;
4186;SDS011;2107;52.306;10.484;2023-06-04T14:44:24;0.40;;;0.40;;
4186;SDS011;2107;52.306;10.484;2023-06-04T14:46:51;0.37;;;0.37;;
4186;SDS011;2107;52.306;10.484;2023-06-04T14:49:18;0.30;;;0.30;;
4186;SDS011;2107;52.306;10.484;2023-06-04T14:51:46;0.37;;;0.37;;
4186;SDS011;2107;52.306;10.484;2023-06-04T14:54:13;0.30;;;0.30;;
4186;SDS011;2107;52.306;10.484;2023-06-04T14:56:40;0.40;;;0.40;;
4186;SDS011;2107;52.306;10.484;2023-06-04T14:59:07;0.40;;;0.40;;
4186;SDS011;2107;52.306;10.484;2023-06-04T15:01:37;0.50;;;0.50;;
4186;SDS011;2107;52.306;10.484;2023-06-04T15:04:05;0.40;;;0.40;;
4186;SDS011;2107;52.306;10.484;2023-06-04T15:06:33;0.40;;;0.40;;
4186;SDS011;2107;52.306;10.484;2023-06-04T15:09:01;0.40;;;0.40;;
4186;SDS011;2107;52.306;10.484;2023-06-04T15:11:29;0.30;;;0.30;;
4186;SDS011;2107;52.306;10.484;2023-06-04T15:13:56;0.40;;;0.40;;